sensor_id;sensor_type;location;lat;lon;timestamp;pressure;altitude;pressure_sealevel;temperature;humidity
2178;BME280;1095;50.992;6.798;2023-05-10T00:02:17;100172.78;;;13.34;100.00
2178;BME280;1095;50.992;6.798;2023-05-10T00:04:43;100174.97;;;13.30;100.00
2178;BME280;1095;50.992;6.798;2023-05-10T00:07:10;100172.34;;;13.30;100.00
2178;BME280;1095;50.992;6.798;2023-05-10T00:09:37;100180.78;;;13.25;100.00
2178;BME280;1095;50.992;6.798;2023-05-10T00:12:04;100165.44;;;13.29;100.00
2178;BME280;1095;50.992;6.798;2023-05-10T00:14:32;100169.34;;;13.33;100.00
2178;BME280;1095;50.992;6.798;2023-05-10T00:16:58;100170.34;;;13.32;100.00
2178;BME280;1095;50.992;6.798;2023-05-10T00:19:25;100170.97;;;13.34;100.00
2178;BME280;1095;50.992;6.798;2023-05-10T00:21:51;100166.91;;;13.32;100.00
2178;BME280;1095;50.992;6.798;2023-05-10T00:24:18;100161.56;;;13.25;100.00
2178;BME280;1095;50.992;6.798;2023-05-10T00:26:45;100167.81;;;13.24;100.00
2178;BME280;1095;50.992;6.798;2023-05-10T00:29:11;100174.78;;;13.32;100.00
2178;BME280;1095;50.992;6.798;2023-05-10T00:31:39;100175.97;;;13.29;100.00
2178;BME280;1095;50.992;6.798;2023-05-10T00:34:06;100177.22;;;13.33;100.00
2178;BME280;1095;50.992;6.798;2023-05-10T00:36:32;100176.78;;;13.29;100.00
2178;BME280;1095;50.992;6.798;2023-05-10T00:38:59;100169.16;;;13.35;100.00
2178;BME280;1095;50.992;6.798;2023-05-10T00:41:26;100171.91;;;13.26;100.00
2178;BME280;1095;50.992;6.798;2023-05-10T00:43:52;100171.47;;;13.23;100.00
2178;BME280;1095;50.992;6.798;2023-05-10T00:46:19;100173.72;;;13.26;100.00
2178;BME280;1095;50.992;6.798;2023-05-10T00:48:48;100176.09;;;13.21;100.00
2178;BME280;1095;50.992;6.798;2023-05-10T00:51:15;100179.34;;;13.23;100.00
2178;BME280;1095;50.992;6.798;2023-05-10T00:53:44;100175.16;;;13.28;100.00
2178;BME280;1095;50.992;6.798;2023-05-10T00:56:11;100167.81;;;13.24;100.00
2178;BME280;1095;50.992;6.798;2023-05-10T00:58:39;100168.44;;;13.26;100.00
2178;BME280;1095;50.992;6.798;2023-05-10T01:01:06;100172.88;;;13.25;100.00
2178;BME280;1095;50.992;6.798;2023-05-10T01:03:33;100178.31;;;13.24;100.00
2178;BME280;1095;50.992;6.798;2023-05-10T01:06:02;100177.59;;;13.30;100.00
2178;BME280;1095;50.992;6.798;2023-05-10T01:08:28;100184.63;;;13.23;100.00
2178;BME280;1095;50.992;6.798;2023-05-10T01:10:55;100182.78;;;13.23;100.00
2178;BME280;1095;50.992;6.798;2023-05-10T01:13:30;100171.06;;;13.26;100.00
2178;BME280;1095;50.992;6.798;2023-05-10T01:15:59;100181.97;;;13.23;100.00
2178;BME280;1095;50.992;6.798;2023-05-10T01:18:28;100190.75;;;13.15;100.00
2178;BME280;1095;50.992;6.798;2023-05-10T01:21:04;100178.72;;;13.21;100.00
2178;BME280;1095;50.992;6.798;2023-05-10T01:23:45;100181.97;;;13.23;100.00
2178;BME280;1095;50.992;6.798;2023-05-10T01:32:36;100186.16;;;13.17;100.00
2178;BME280;1095;50.992;6.798;2023-05-10T01:35:10;100194.50;;;13.21;100.00
2178;BME280;1095;50.992;6.798;2023-05-10T01:37:51;100200.63;;;13.28;100.00
2178;BME280;1095;50.992;6.798;2023-05-10T01:40:23;100185.22;;;13.25;100.00
2178;BME280;1095;50.992;6.798;2023-05-10T01:42:55;100195.34;;;13.28;100.00
2178;BME280;1095;50.992;6.798;2023-05-10T01:45:28;100190.66;;;13.23;100.00
2178;BME280;1095;50.992;6.798;2023-05-10T01:48:05;100191.47;;;13.24;100.00
2178;BME280;1095;50.992;6.798;2023-05-10T01:50:34;100187.59;;;13.20;100.00
2178;BME280;1095;50.992;6.798;2023-05-10T01:53:02;100191.69;;;13.22;100.00
2178;BME280;1095;50.992;6.798;2023-05-10T01:55:32;100187.78;;;13.18;100.00
2178;BME280;1095;50.992;6.798;2023-05-10T01:58:04;100190.88;;;13.22;100.00
2178;BME280;1095;50.992;6.798;2023-05-10T02:00:32;100187.66;;;13.26;100.00
2178;BME280;1095;50.992;6.798;2023-05-10T02:03:01;100186.22;;;13.24;100.00
2178;BME280;1095;50.992;6.798;2023-05-10T02:05:32;100181.53;;;13.19;100.00
2178;BME280;1095;50.992;6.798;2023-05-10T02:08:00;100184.03;;;13.13;100.00
2178;BME280;1095;50.992;6.798;2023-05-10T02:10:28;100193.22;;;13.17;100.00
2178;BME280;1095;50.992;6.798;2023-05-10T02:12:58;100180.25;;;13.15;100.00
2178;BME280;1095;50.992;6.798;2023-05-10T02:15:26;100187.78;;;13.18;100.00
2178;BME280;1095;50.992;6.798;2023-05-10T02:17:55;100193.91;;;13.11;100.00
2178;BME280;1095;50.992;6.798;2023-05-10T02:20:23;100191.66;;;13.08;100.00
2178;BME280;1095;50.992;6.798;2023-05-10T02:22:53;100194.38;;;13.14;100.00
2178;BME280;1095;50.992;6.798;2023-05-10T02:25:21;100197.47;;;13.18;100.00
2178;BME280;1095;50.992;6.798;2023-05-10T02:27:51;100205.81;;;13.21;100.00
2178;BME280;1095;50.992;6.798;2023-05-10T02:30:20;100203.38;;;13.20;100.00
2178;BME280;1095;50.992;6.798;2023-05-10T02:32:48;100202.09;;;13.16;100.00
2178;BME280;1095;50.992;6.798;2023-05-10T02:35:16;100200.44;;;13.15;100.00
2178;BME280;1095;50.992;6.798;2023-05-10T02:37:43;100214.13;;;13.10;100.00
2178;BME280;1095;50.992;6.798;2023-05-10T02:40:14;100215.13;;;13.09;100.00
2178;BME280;1095;50.992;6.798;2023-05-10T02:42:44;100200.44;;;13.15;100.00
2178;BME280;1095;50.992;6.798;2023-05-10T02:45:13;100209.81;;;13.17;100.00
2178;BME280;1095;50.992;6.798;2023-05-10T02:47:40;100206.00;;;13.20;100.00
2178;BME280;1095;50.992;6.798;2023-05-10T02:50:08;100210.94;;;13.15;100.00
2178;BME280;1095;50.992;6.798;2023-05-10T02:52:39;100205.69;;;13.15;100.00
2178;BME280;1095;50.992;6.798;2023-05-10T02:55:09;100210.81;;;13.16;100.00
2178;BME280;1095;50.992;6.798;2023-05-10T02:57:41;100216.38;;;13.13;100.00
2178;BME280;1095;50.992;6.798;2023-05-10T03:00:08;100222.63;;;13.12;100.00
2178;BME280;1095;50.992;6.798;2023-05-10T03:02:35;100223.94;;;13.16;100.00
2178;BME280;1095;50.992;6.798;2023-05-10T03:05:02;100229.00;;;13.18;100.00
2178;BME280;1095;50.992;6.798;2023-05-10T03:07:29;100227.84;;;13.20;100.00
2178;BME280;1095;50.992;6.798;2023-05-10T03:09:56;100228.00;;;13.19;100.00
2178;BME280;1095;50.992;6.798;2023-05-10T03:12:29;100224.44;;;13.12;100.00
2178;BME280;1095;50.992;6.798;2023-05-10T03:15:05;100230.00;;;13.17;100.00
2178;BME280;1095;50.992;6.798;2023-05-10T03:17:46;100223.38;;;13.21;100.00
2178;BME280;1095;50.992;6.798;2023-05-10T03:20:20;100221.31;;;13.16;100.00
2178;BME280;1095;50.992;6.798;2023-05-10T03:22:51;100223.38;;;13.21;100.00
2178;BME280;1095;50.992;6.798;2023-05-10T03:25:18;100220.38;;;13.24;100.00
2178;BME280;1095;50.992;6.798;2023-05-10T03:27:47;100229.28;;;13.23;100.00
2178;BME280;1095;50.992;6.798;2023-05-10T03:30:16;100234.53;;;13.23;100.00
2178;BME280;1095;50.992;6.798;2023-05-10T03:32:43;100242.59;;;13.21;100.00
2178;BME280;1095;50.992;6.798;2023-05-10T03:35:11;100228.25;;;13.24;100.00
2178;BME280;1095;50.992;6.798;2023-05-10T03:37:38;100230.06;;;13.23;100.00
2178;BME280;1095;50.992;6.798;2023-05-10T03:40:06;100241.03;;;13.27;100.00
2178;BME280;1095;50.992;6.798;2023-05-10T03:42:33;100230.16;;;13.30;100.00
2178;BME280;1095;50.992;6.798;2023-05-10T03:45:00;100239.41;;;13.26;100.00
2178;BME280;1095;50.992;6.798;2023-05-10T03:47:28;100234.13;;;13.26;100.00
2178;BME280;1095;50.992;6.798;2023-05-10T03:49:55;100238.97;;;13.22;100.00
2178;BME280;1095;50.992;6.798;2023-05-10T03:52:22;100240.38;;;13.25;100.00
2178;BME280;1095;50.992;6.798;2023-05-10T03:54:49;100242.41;;;13.23;100.00
2178;BME280;1095;50.992;6.798;2023-05-10T03:57:15;100247.91;;;13.28;100.00
2178;BME280;1095;50.992;6.798;2023-05-10T03:59:42;100239.41;;;13.26;100.00
2178;BME280;1095;50.992;6.798;2023-05-10T04:02:08;100241.38;;;13.24;100.00
2178;BME280;1095;50.992;6.798;2023-05-10T04:04:36;100252.16;;;13.29;100.00
2178;BME280;1095;50.992;6.798;2023-05-10T04:07:03;100241.94;;;13.34;100.00
2178;BME280;1095;50.992;6.798;2023-05-10T04:09:30;100242.28;;;13.31;100.00
2178;BME280;1095;50.992;6.798;2023-05-10T04:11:56;100240.19;;;13.41;100.00
2178;BME280;1095;50.992;6.798;2023-05-10T04:14:24;100251.16;;;13.30;100.00
2178;BME280;1095;50.992;6.798;2023-05-10T04:16:51;100243.78;;;13.19;100.00
2178;BME280;1095;50.992;6.798;2023-05-10T04:19:17;100240.84;;;13.14;100.00
2178;BME280;1095;50.992;6.798;2023-05-10T04:21:45;100240.94;;;13.06;100.00
2178;BME280;1095;50.992;6.798;2023-05-10T04:24:12;100238.75;;;13.09;100.00
2178;BME280;1095;50.992;6.798;2023-05-10T04:26:38;100240.22;;;13.12;100.00
2178;BME280;1095;50.992;6.798;2023-05-10T04:29:05;100238.75;;;13.09;100.00
2178;BME280;1095;50.992;6.798;2023-05-10T04:31:32;100247.00;;;13.06;100.00
2178;BME280;1095;50.992;6.798;2023-05-10T04:33:59;100244.00;;;13.09;100.00
2178;BME280;1095;50.992;6.798;2023-05-10T04:36:26;100251.25;;;13.07;100.00
2178;BME280;1095;50.992;6.798;2023-05-10T04:38:54;100245.56;;;13.04;100.00
2178;BME280;1095;50.992;6.798;2023-05-10T04:41:20;100252.97;;;13.15;100.00
2178;BME280;1095;50.992;6.798;2023-05-10T04:43:47;100253.59;;;13.02;100.00
2178;BME280;1095;50.992;6.798;2023-05-10T04:46:14;100253.50;;;12.95;100.00
2178;BME280;1095;50.992;6.798;2023-05-10T04:48:41;100253.16;;;12.99;100.00
2178;BME280;1095;50.992;6.798;2023-05-10T04:51:07;100255.25;;;13.03;100.00
2178;BME280;1095;50.992;6.798;2023-05-10T04:53:34;100258.75;;;12.95;100.00
2178;BME280;1095;50.992;6.798;2023-05-10T04:56:02;100258.97;;;13.09;100.00
2178;BME280;1095;50.992;6.798;2023-05-10T04:58:29;100257.88;;;13.03;100.00
2178;BME280;1095;50.992;6.798;2023-05-10T05:00:56;100263.94;;;13.04;100.00
2178;BME280;1095;50.992;6.798;2023-05-10T05:03:22;100267.56;;;13.03;100.00
2178;BME280;1095;50.992;6.798;2023-05-10T05:05:49;100268.09;;;12.98;100.00
2178;BME280;1095;50.992;6.798;2023-05-10T05:08:16;100267.63;;;12.94;100.00
2178;BME280;1095;50.992;6.798;2023-05-10T05:10:42;100266.09;;;13.00;100.00
2178;BME280;1095;50.992;6.798;2023-05-10T05:13:12;100265.03;;;13.09;100.00
2178;BME280;1095;50.992;6.798;2023-05-10T05:15:38;100269.09;;;13.12;100.00
2178;BME280;1095;50.992;6.798;2023-05-10T05:18:05;100270.72;;;13.13;100.00
2178;BME280;1095;50.992;6.798;2023-05-10T05:20:32;100274.72;;;13.09;100.00
2178;BME280;1095;50.992;6.798;2023-05-10T05:22:59;100283.22;;;13.11;100.00
2178;BME280;1095;50.992;6.798;2023-05-10T05:25:26;100282.97;;;13.06;100.00
2178;BME280;1095;50.992;6.798;2023-05-10T05:27:53;100276.53;;;13.08;100.00
2178;BME280;1095;50.992;6.798;2023-05-10T05:30:21;100276.81;;;13.13;100.00
2178;BME280;1095;50.992;6.798;2023-05-10T05:32:47;100274.09;;;13.07;100.00
2178;BME280;1095;50.992;6.798;2023-05-10T05:35:14;100277.63;;;13.14;100.00
2178;BME280;1095;50.992;6.798;2023-05-10T05:37:41;100287.63;;;13.18;100.00
2178;BME280;1095;50.992;6.798;2023-05-10T05:40:08;100282.06;;;13.28;100.00
2178;BME280;1095;50.992;6.798;2023-05-10T05:42:38;100286.69;;;13.26;100.00
2178;BME280;1095;50.992;6.798;2023-05-10T05:45:05;100286.97;;;13.31;100.00
2178;BME280;1095;50.992;6.798;2023-05-10T05:47:35;100286.06;;;13.24;100.00
2178;BME280;1095;50.992;6.798;2023-05-10T05:50:02;100279.38;;;13.21;100.00
2178;BME280;1095;50.992;6.798;2023-05-10T05:52:28;100290.94;;;13.27;100.00
2178;BME280;1095;50.992;6.798;2023-05-10T05:54:55;100299.19;;;13.24;100.00
2178;BME280;1095;50.992;6.798;2023-05-10T05:57:24;100295.47;;;13.33;100.00
2178;BME280;1095;50.992;6.798;2023-05-10T05:59:51;100301.28;;;13.43;100.00
2178;BME280;1095;50.992;6.798;2023-05-10T06:02:18;100295.66;;;13.46;100.00
2178;BME280;1095;50.992;6.798;2023-05-10T06:04:46;100303.63;;;13.23;100.00
2178;BME280;1095;50.992;6.798;2023-05-10T06:07:13;100304.09;;;13.27;100.00
2178;BME280;1095;50.992;6.798;2023-05-10T06:09:39;100307.88;;;13.24;100.00
2178;BME280;1095;50.992;6.798;2023-05-10T06:12:06;100307.72;;;13.26;100.00
2178;BME280;1095;50.992;6.798;2023-05-10T06:14:32;100309.63;;;13.17;100.00
2178;BME280;1095;50.992;6.798;2023-05-10T06:16:59;100323.75;;;13.16;100.00
2178;BME280;1095;50.992;6.798;2023-05-10T06:19:26;100325.41;;;13.17;100.00
2178;BME280;1095;50.992;6.798;2023-05-10T06:21:54;100336.59;;;13.11;100.00
2178;BME280;1095;50.992;6.798;2023-05-10T06:24:21;100333.31;;;13.09;100.00
2178;BME280;1095;50.992;6.798;2023-05-10T06:26:48;100334.97;;;13.10;100.00
2178;BME280;1095;50.992;6.798;2023-05-10T06:29:15;100331.88;;;13.07;100.00
2178;BME280;1095;50.992;6.798;2023-05-10T06:31:44;100340.75;;;13.06;100.00
2178;BME280;1095;50.992;6.798;2023-05-10T06:34:11;100340.09;;;13.04;100.00
2178;BME280;1095;50.992;6.798;2023-05-10T06:36:38;100352.53;;;13.10;100.00
2178;BME280;1095;50.992;6.798;2023-05-10T06:39:06;100351.53;;;13.11;100.00
2178;BME280;1095;50.992;6.798;2023-05-10T06:41:33;100342.47;;;13.13;100.00
2178;BME280;1095;50.992;6.798;2023-05-10T06:44:00;100361.03;;;13.12;100.00
2178;BME280;1095;50.992;6.798;2023-05-10T06:46:26;100355.06;;;13.03;100.00
2178;BME280;1095;50.992;6.798;2023-05-10T06:48:53;100361.47;;;13.01;100.00
2178;BME280;1095;50.992;6.798;2023-05-10T06:51:20;100366.47;;;13.10;100.00
2178;BME280;1095;50.992;6.798;2023-05-10T06:53:48;100371.72;;;13.10;100.00
2178;BME280;1095;50.992;6.798;2023-05-10T06:56:23;100372.19;;;13.14;100.00
2178;BME280;1095;50.992;6.798;2023-05-10T06:58:57;100376.59;;;13.21;100.00
2178;BME280;1095;50.992;6.798;2023-05-10T07:01:26;100378.63;;;13.11;100.00
2178;BME280;1095;50.992;6.798;2023-05-10T07:03:54;100381.38;;;13.18;100.00
2178;BME280;1095;50.992;6.798;2023-05-10T07:06:20;100377.94;;;13.17;100.00
2178;BME280;1095;50.992;6.798;2023-05-10T07:08:47;100383.19;;;13.17;100.00
2178;BME280;1095;50.992;6.798;2023-05-10T07:11:13;100383.28;;;13.24;100.00
2178;BME280;1095;50.992;6.798;2023-05-10T07:13:42;100376.22;;;13.39;100.00
2178;BME280;1095;50.992;6.798;2023-05-10T07:16:09;100375.78;;;13.36;100.00
2178;BME280;1095;50.992;6.798;2023-05-10T07:18:36;100378.41;;;13.50;100.00
2178;BME280;1095;50.992;6.798;2023-05-10T07:21:03;100386.56;;;13.55;100.00
2178;BME280;1095;50.992;6.798;2023-05-10T07:23:33;100383.03;;;13.48;100.00
2178;BME280;1095;50.992;6.798;2023-05-10T07:26:10;100378.50;;;13.57;100.00
2178;BME280;1095;50.992;6.798;2023-05-10T07:28:37;100375.25;;;13.55;100.00
2178;BME280;1095;50.992;6.798;2023-05-10T07:31:05;100380.78;;;13.60;100.00
2178;BME280;1095;50.992;6.798;2023-05-10T07:33:32;100380.97;;;13.58;100.00
2178;BME280;1095;50.992;6.798;2023-05-10T07:35:58;100385.47;;;13.50;100.00
2178;BME280;1095;50.992;6.798;2023-05-10T07:38:25;100387.75;;;13.53;100.00
2178;BME280;1095;50.992;6.798;2023-05-10T07:40:52;100389.56;;;13.52;100.00
2178;BME280;1095;50.992;6.798;2023-05-10T07:43:18;100389.19;;;13.55;100.00
2178;BME280;1095;50.992;6.798;2023-05-10T07:45:45;100379.97;;;13.59;100.00
2178;BME280;1095;50.992;6.798;2023-05-10T07:48:13;100383.69;;;13.65;100.00
2178;BME280;1095;50.992;6.798;2023-05-10T07:50:39;100385.47;;;13.79;100.00
2178;BME280;1095;50.992;6.798;2023-05-10T07:53:06;100386.19;;;13.88;100.00
2178;BME280;1095;50.992;6.798;2023-05-10T07:55:33;100377.75;;;13.92;100.00
2178;BME280;1095;50.992;6.798;2023-05-10T07:57:59;100388.19;;;13.86;100.00
2178;BME280;1095;50.992;6.798;2023-05-10T08:00:27;100386.63;;;13.77;100.00
2178;BME280;1095;50.992;6.798;2023-05-10T08:02:53;100386.41;;;13.57;100.00
2178;BME280;1095;50.992;6.798;2023-05-10T08:05:21;100398.72;;;13.56;100.00
2178;BME280;1095;50.992;6.798;2023-05-10T08:07:48;100396.63;;;13.52;100.00
2178;BME280;1095;50.992;6.798;2023-05-10T08:10:14;100396.09;;;13.56;100.00
2178;BME280;1095;50.992;6.798;2023-05-10T08:12:42;100404.91;;;13.64;100.00
2178;BME280;1095;50.992;6.798;2023-05-10T08:15:09;100401.34;;;13.56;100.00
2178;BME280;1095;50.992;6.798;2023-05-10T08:17:36;100409.03;;;13.43;100.00
2178;BME280;1095;50.992;6.798;2023-05-10T08:20:03;100399.44;;;13.50;100.00
2178;BME280;1095;50.992;6.798;2023-05-10T08:22:31;100409.13;;;13.50;100.00
2178;BME280;1095;50.992;6.798;2023-05-10T08:24:58;100402.34;;;13.55;100.00
2178;BME280;1095;50.992;6.798;2023-05-10T08:27:24;100412.88;;;13.55;100.00
2178;BME280;1095;50.992;6.798;2023-05-10T08:29:51;100415.59;;;13.62;100.00
2178;BME280;1095;50.992;6.798;2023-05-10T08:32:17;100415.78;;;13.60;100.00
2178;BME280;1095;50.992;6.798;2023-05-10T08:34:44;100423.38;;;13.55;100.00
2178;BME280;1095;50.992;6.798;2023-05-10T08:37:10;100422.56;;;13.55;100.00
2178;BME280;1095;50.992;6.798;2023-05-10T08:39:39;100413.22;;;13.52;100.00
2178;BME280;1095;50.992;6.798;2023-05-10T08:42:06;100422.66;;;13.61;100.00
2178;BME280;1095;50.992;6.798;2023-05-10T08:44:35;100411.22;;;13.84;100.00
2178;BME280;1095;50.992;6.798;2023-05-10T08:47:05;100415.03;;;13.96;100.00
2178;BME280;1095;50.992;6.798;2023-05-10T08:49:32;100419.31;;;14.18;100.00
2178;BME280;1095;50.992;6.798;2023-05-10T08:52:02;100424.38;;;14.35;100.00
2178;BME280;1095;50.992;6.798;2023-05-10T08:54:31;100417.31;;;14.50;100.00
2178;BME280;1095;50.992;6.798;2023-05-10T08:56:59;100436.09;;;14.32;100.00
2178;BME280;1095;50.992;6.798;2023-05-10T08:59:27;100425.31;;;14.27;100.00
2178;BME280;1095;50.992;6.798;2023-05-10T09:01:55;100429.50;;;14.21;100.00
2178;BME280;1095;50.992;6.798;2023-05-10T09:04:24;100425.19;;;14.35;100.00
2178;BME280;1095;50.992;6.798;2023-05-10T09:06:50;100435.47;;;14.45;100.00
2178;BME280;1095;50.992;6.798;2023-05-10T09:09:17;100435.63;;;14.58;100.00
2178;BME280;1095;50.992;6.798;2023-05-10T09:11:45;100436.91;;;14.47;100.00
2178;BME280;1095;50.992;6.798;2023-05-10T09:14:14;100436.44;;;14.58;100.00
2178;BME280;1095;50.992;6.798;2023-05-10T09:16:42;100444.97;;;14.82;100.00
2178;BME280;1095;50.992;6.798;2023-05-10T09:19:09;100445.97;;;14.81;100.00
2178;BME280;1095;50.992;6.798;2023-05-10T09:21:36;100449.50;;;15.16;100.00
2178;BME280;1095;50.992;6.798;2023-05-10T09:24:04;100444.78;;;15.05;100.00
2178;BME280;1095;50.992;6.798;2023-05-10T09:26:31;100453.50;;;15.05;100.00
2178;BME280;1095;50.992;6.798;2023-05-10T09:28:59;100470.59;;;15.58;100.00
2178;BME280;1095;50.992;6.798;2023-05-10T09:31:44;100468.81;;;16.00;100.00
2178;BME280;1095;50.992;6.798;2023-05-10T09:34:11;100472.69;;;16.11;100.00
2178;BME280;1095;50.992;6.798;2023-05-10T09:36:54;100464.63;;;16.73;99.06
2178;BME280;1095;50.992;6.798;2023-05-10T09:39:30;100452.88;;;17.22;97.23
2178;BME280;1095;50.992;6.798;2023-05-10T09:41:57;100452.03;;;17.02;94.82
2178;BME280;1095;50.992;6.798;2023-05-10T09:44:25;100452.34;;;16.59;94.81
2178;BME280;1095;50.992;6.798;2023-05-10T09:46:53;100463.59;;;16.20;95.30
2178;BME280;1095;50.992;6.798;2023-05-10T09:49:20;100461.44;;;15.89;96.25
2178;BME280;1095;50.992;6.798;2023-05-10T09:51:47;100464.50;;;15.65;97.75
2178;BME280;1095;50.992;6.798;2023-05-10T09:54:15;100464.91;;;15.62;98.24
2178;BME280;1095;50.992;6.798;2023-05-10T09:56:42;100463.50;;;15.59;98.54
2178;BME280;1095;50.992;6.798;2023-05-10T09:59:10;100461.41;;;15.54;97.96
2178;BME280;1095;50.992;6.798;2023-05-10T10:01:38;100464.69;;;15.35;98.04
2178;BME280;1095;50.992;6.798;2023-05-10T10:04:08;100461.16;;;15.49;98.01
2178;BME280;1095;50.992;6.798;2023-05-10T10:06:36;100462.16;;;15.76;97.88
2178;BME280;1095;50.992;6.798;2023-05-10T10:09:04;100459.50;;;16.04;97.24
2178;BME280;1095;50.992;6.798;2023-05-10T10:11:31;100459.13;;;16.20;94.86
2178;BME280;1095;50.992;6.798;2023-05-10T10:13:58;100460.91;;;16.07;93.75
2178;BME280;1095;50.992;6.798;2023-05-10T10:16:24;100462.72;;;16.54;93.81
2178;BME280;1095;50.992;6.798;2023-05-10T10:18:51;100471.25;;;16.56;93.65
2178;BME280;1095;50.992;6.798;2023-05-10T10:21:19;100460.38;;;16.85;92.72
2178;BME280;1095;50.992;6.798;2023-05-10T10:23:46;100461.03;;;17.01;91.88
2178;BME280;1095;50.992;6.798;2023-05-10T10:26:13;100468.72;;;16.89;91.87
2178;BME280;1095;50.992;6.798;2023-05-10T10:28:46;100462.06;;;16.39;90.91
2178;BME280;1095;50.992;6.798;2023-05-10T10:31:23;100463.50;;;16.41;91.66
2178;BME280;1095;50.992;6.798;2023-05-10T10:33:59;100456.72;;;16.86;91.67
2178;BME280;1095;50.992;6.798;2023-05-10T10:36:28;100464.06;;;17.17;91.03
2178;BME280;1095;50.992;6.798;2023-05-10T10:38:59;100455.53;;;17.42;88.95
2178;BME280;1095;50.992;6.798;2023-05-10T10:41:31;100454.69;;;16.88;88.31
2178;BME280;1095;50.992;6.798;2023-05-10T10:44:38;100457.28;;;16.69;88.90
2178;BME280;1095;50.992;6.798;2023-05-10T10:47:07;100461.78;;;16.81;88.53
2178;BME280;1095;50.992;6.798;2023-05-10T10:49:43;100460.94;;;16.68;90.31
2178;BME280;1095;50.992;6.798;2023-05-10T10:52:21;100468.66;;;16.15;90.59
2178;BME280;1095;50.992;6.798;2023-05-10T10:54:52;100476.94;;;16.05;92.99
2178;BME280;1095;50.992;6.798;2023-05-10T10:57:20;100479.94;;;15.96;93.38
2178;BME280;1095;50.992;6.798;2023-05-10T10:59:48;100474.69;;;15.68;93.95
2178;BME280;1095;50.992;6.798;2023-05-10T11:02:34;100483.06;;;15.78;94.23
2178;BME280;1095;50.992;6.798;2023-05-10T11:08:13;100469.09;;;15.84;94.30
2178;BME280;1095;50.992;6.798;2023-05-10T11:10:50;100470.97;;;15.90;93.51
2178;BME280;1095;50.992;6.798;2023-05-10T11:13:27;100481.09;;;16.27;93.39
2178;BME280;1095;50.992;6.798;2023-05-10T11:15:56;100470.22;;;16.57;91.84
2178;BME280;1095;50.992;6.798;2023-05-10T11:18:25;100469.38;;;16.37;90.08
2178;BME280;1095;50.992;6.798;2023-05-10T11:20:56;100463.53;;;16.61;89.85
2178;BME280;1095;50.992;6.798;2023-05-10T11:23:29;100463.53;;;16.61;89.57
2178;BME280;1095;50.992;6.798;2023-05-10T11:25:56;100464.56;;;16.53;87.90
2178;BME280;1095;50.992;6.798;2023-05-10T11:28:23;100467.28;;;16.80;88.17
2178;BME280;1095;50.992;6.798;2023-05-10T11:30:49;100466.50;;;17.12;86.78
2178;BME280;1095;50.992;6.798;2023-05-10T11:33:17;100459.38;;;17.00;84.84
2178;BME280;1095;50.992;6.798;2023-05-10T11:35:44;100460.59;;;17.04;84.51
2178;BME280;1095;50.992;6.798;2023-05-10T11:38:12;100473.19;;;17.02;84.40
2178;BME280;1095;50.992;6.798;2023-05-10T11:40:41;100469.81;;;16.60;83.80
2178;BME280;1095;50.992;6.798;2023-05-10T11:43:09;100471.16;;;17.04;83.19
2178;BME280;1095;50.992;6.798;2023-05-10T11:45:37;100464.47;;;17.47;82.50
2178;BME280;1095;50.992;6.798;2023-05-10T11:48:03;100474.03;;;17.22;81.49
2178;BME280;1095;50.992;6.798;2023-05-10T11:50:30;100468.72;;;17.62;80.16
2178;BME280;1095;50.992;6.798;2023-05-10T11:53:07;100478.09;;;17.71;81.02
2178;BME280;1095;50.992;6.798;2023-05-10T11:55:34;100477.47;;;17.82;80.78
2178;BME280;1095;50.992;6.798;2023-05-10T11:58:02;100482.84;;;18.27;79.48
2178;BME280;1095;50.992;6.798;2023-05-10T12:00:29;100471.78;;;17.65;79.04
2178;BME280;1095;50.992;6.798;2023-05-10T12:02:56;100475.44;;;17.57;79.04
2178;BME280;1095;50.992;6.798;2023-05-10T12:05:24;100478.50;;;17.15;80.17
2178;BME280;1095;50.992;6.798;2023-05-10T12:07:50;100487.78;;;18.03;80.04
2178;BME280;1095;50.992;6.798;2023-05-10T12:10:25;100452.50;;;18.16;77.77
2178;BME280;1095;50.992;6.798;2023-05-10T12:12:52;100470.81;;;18.24;77.67
2178;BME280;1095;50.992;6.798;2023-05-10T12:15:21;100477.25;;;17.83;78.23
2178;BME280;1095;50.992;6.798;2023-05-10T12:17:49;100468.34;;;17.45;77.22
2178;BME280;1095;50.992;6.798;2023-05-10T12:20:17;100470.38;;;17.30;79.05
2178;BME280;1095;50.992;6.798;2023-05-10T12:22:45;100480.75;;;17.18;80.15
2178;BME280;1095;50.992;6.798;2023-05-10T12:25:12;100476.06;;;17.46;80.67
2178;BME280;1095;50.992;6.798;2023-05-10T12:27:39;100481.34;;;17.66;80.41
2178;BME280;1095;50.992;6.798;2023-05-10T12:30:07;100484.09;;;18.11;79.98
2178;BME280;1095;50.992;6.798;2023-05-10T12:32:41;100468.94;;;17.73;78.31
2178;BME280;1095;50.992;6.798;2023-05-10T12:35:08;100480.13;;;17.82;79.13
2178;BME280;1095;50.992;6.798;2023-05-10T12:37:35;100485.28;;;18.28;78.32
2178;BME280;1095;50.992;6.798;2023-05-10T12:40:06;100483.63;;;18.34;78.06
2178;BME280;1095;50.992;6.798;2023-05-10T12:42:34;100482.25;;;18.11;77.91
2178;BME280;1095;50.992;6.798;2023-05-10T12:45:01;100480.22;;;18.13;77.27
2178;BME280;1095;50.992;6.798;2023-05-10T12:47:28;100483.38;;;17.84;79.13
2178;BME280;1095;50.992;6.798;2023-05-10T12:49:56;100493.13;;;17.64;79.25
2178;BME280;1095;50.992;6.798;2023-05-10T12:52:23;100488.03;;;17.95;79.24
2178;BME280;1095;50.992;6.798;2023-05-10T12:54:51;100492.22;;;18.16;78.67
2178;BME280;1095;50.992;6.798;2023-05-10T12:57:18;100489.56;;;18.29;77.31
2178;BME280;1095;50.992;6.798;2023-05-10T12:59:44;100488.53;;;18.23;77.04
2178;BME280;1095;50.992;6.798;2023-05-10T13:02:11;100484.78;;;18.44;77.26
2178;BME280;1095;50.992;6.798;2023-05-10T13:04:38;100487.22;;;18.46;78.18
2178;BME280;1095;50.992;6.798;2023-05-10T13:07:06;100488.50;;;18.37;78.33
2178;BME280;1095;50.992;6.798;2023-05-10T13:09:33;100501.94;;;18.42;78.01
2178;BME280;1095;50.992;6.798;2023-05-10T13:11:59;100482.81;;;18.33;77.51
2178;BME280;1095;50.992;6.798;2023-05-10T13:14:26;100491.03;;;18.63;77.20
2178;BME280;1095;50.992;6.798;2023-05-10T13:16:53;100488.81;;;18.53;75.78
2178;BME280;1095;50.992;6.798;2023-05-10T13:19:20;100490.53;;;18.41;75.19